Time;durP1;ratioP1;P1;durP2;ratioP2;P2;SDS_P1;SDS_P2;PMS_P1;PMS_P2;Temp;Humidity;BMP_temperature;BMP_pressure;BME280_temperature;BME280_humidity;BME280_pressure;Samples;Min_cycle;Max_cycle;Signal;HPM_P1;HPM_P2
2022/08/07 00:01:47;;;;;;;0.70;0.70;;;;;;;11.97;93.66;101764.22;5054836;28;20191;-74
2022/08/07 00:04:15;;;;;;;0.70;0.70;;;;;;;12.03;95.19;101768.47;5054513;28;20247;-74
2022/08/07 00:06:41;;;;;;;0.60;0.50;;;;;;;12.10;97.32;101759.66;5048135;28;20652;-74
2022/08/07 00:09:08;;;;;;;0.60;0.60;;;;;;;12.14;98.00;101763.97;5051202;28;20210;-74
2022/08/07 00:11:34;;;;;;;0.60;0.60;;;;;;;11.96;95.56;101764.22;5053941;28;20551;-73
2022/08/07 00:14:01;;;;;;;0.80;0.70;;;;;;;12.02;99.97;101759.78;5051714;28;20207;-74
2022/08/07 00:16:27;;;;;;;3.03;0.80;;;;;;;11.96;97.35;101765.13;5050689;28;20207;-74
2022/08/07 00:18:53;;;;;;;2.47;0.70;;;;;;;12.04;99.64;101773.69;5031195;28;20204;-74
2022/08/07 00:21:21;;;;;;;0.70;0.70;;;;;;;11.92;98.33;101776.47;5050436;28;20207;-74
2022/08/07 00:23:48;;;;;;;0.60;0.60;;;;;;;11.84;98.32;101770.47;5053600;28;20206;-74
2022/08/07 00:26:14;;;;;;;0.70;0.70;;;;;;;11.75;97.99;101767.09;5042477;28;20199;-74
2022/08/07 00:28:42;;;;;;;0.70;0.70;;;;;;;11.74;98.12;101772.31;5051367;28;20202;-74
2022/08/07 00:31:10;;;;;;;2.90;0.70;;;;;;;11.84;100.00;101762.63;5048666;28;20226;-75
2022/08/07 00:33:38;;;;;;;0.60;0.60;;;;;;;11.69;98.60;101763.69;5051140;28;20200;-74
2022/08/07 00:36:06;;;;;;;0.87;0.80;;;;;;;11.77;100.00;101766.19;5033304;28;20560;-74
2022/08/07 00:38:35;;;;;;;0.60;0.60;;;;;;;11.67;99.12;101768.06;5024461;28;20222;-75
2022/08/07 00:41:03;;;;;;;0.67;0.67;;;;;;;11.67;100.00;101763.69;5025611;28;20233;-74
2022/08/07 00:43:30;;;;;;;1.10;1.00;;;;;;;11.60;100.00;101766.41;5033394;28;20200;-74
2022/08/07 00:45:56;;;;;;;0.63;0.63;;;;;;;11.81;100.00;101763.53;5031357;28;20202;-74
2022/08/07 00:48:23;;;;;;;1.20;0.80;;;;;;;11.74;100.00;101767.09;5040639;28;20206;-74
2022/08/07 00:50:49;;;;;;;0.73;0.70;;;;;;;11.86;100.00;101768.69;5026415;28;20237;-74
2022/08/07 00:53:16;;;;;;;0.60;0.60;;;;;;;11.72;100.00;101758.41;5045327;28;20231;-75
2022/08/07 00:55:44;;;;;;;0.70;0.70;;;;;;;11.70;100.00;101765.41;5039248;28;20378;-74
2022/08/07 00:58:10;;;;;;;2.80;0.60;;;;;;;11.45;100.00;101772.66;5019319;28;20211;-74
2022/08/07 01:00:37;;;;;;;0.83;0.80;;;;;;;11.36;100.00;101768.41;5043597;28;20283;-75
2022/08/07 01:03:04;;;;;;;0.70;0.70;;;;;;;11.47;100.00;101769.16;5032755;28;20257;-74
2022/08/07 01:05:32;;;;;;;0.80;0.80;;;;;;;11.59;100.00;101754.22;5045332;28;20191;-74
2022/08/07 01:07:58;;;;;;;1.17;0.80;;;;;;;11.35;100.00;101764.94;5040440;28;20199;-74
2022/08/07 01:10:25;;;;;;;1.07;0.80;;;;;;;11.31;100.00;101762.38;5050966;28;20234;-74
2022/08/07 01:12:53;;;;;;;3.20;0.70;;;;;;;11.29;100.00;101762.41;5032941;28;20240;-74
2022/08/07 01:15:20;;;;;;;0.80;0.80;;;;;;;11.32;100.00;101762.34;5032685;28;20195;-74
2022/08/07 01:17:46;;;;;;;0.80;0.80;;;;;;;11.44;100.00;101761.38;5038892;28;20723;-74
2022/08/07 01:20:15;;;;;;;0.70;0.70;;;;;;;11.36;100.00;101761.47;5032458;28;20273;-74
2022/08/07 01:22:44;;;;;;;1.30;0.70;;;;;;;11.15;100.00;101765.19;5025544;28;20629;-74
2022/08/07 01:25:12;;;;;;;0.63;0.63;;;;;;;11.31;100.00;101755.44;5015496;28;20196;-74
2022/08/07 01:27:39;;;;;;;0.80;0.80;;;;;;;11.22;100.00;101760.75;5012267;28;20195;-74
2022/08/07 01:30:08;;;;;;;1.00;0.70;;;;;;;11.14;100.00;101763.44;5041061;28;20681;-74
2022/08/07 01:32:34;;;;;;;0.73;0.73;;;;;;;11.20;100.00;101761.63;5032155;28;20209;-74
2022/08/07 01:35:01;;;;;;;1.03;0.77;;;;;;;11.12;100.00;101757.38;5030610;28;20199;-74
2022/08/07 01:37:29;;;;;;;1.20;0.90;;;;;;;11.09;100.00;101760.00;5035651;28;20202;-74
2022/08/07 01:40:00;;;;;;;1.40;1.00;;;;;;;10.99;100.00;101761.84;5032003;28;20230;-74
2022/08/07 01:42:30;;;;;;;0.90;0.90;;;;;;;11.14;100.00;101757.34;5032201;28;20202;-74
2022/08/07 01:44:57;;;;;;;1.53;0.87;;;;;;;11.09;100.00;101757.38;5048830;28;20582;-74
2022/08/07 01:47:24;;;;;;;1.67;0.90;;;;;;;10.96;100.00;101763.63;5032180;28;20206;-75
2022/08/07 01:49:51;;;;;;;0.70;0.70;;;;;;;11.05;100.00;101747.88;5028080;28;20223;-74
2022/08/07 01:52:19;;;;;;;0.80;0.80;;;;;;;10.93;100.00;101750.59;5030213;28;20260;-74
2022/08/07 01:54:46;;;;;;;1.07;0.80;;;;;;;10.88;100.00;101752.38;5032296;28;20289;-74
2022/08/07 01:57:19;;;;;;;1.53;0.97;;;;;;;10.93;100.00;101753.22;5031585;28;20210;-74
2022/08/07 01:59:51;;;;;;;0.90;0.90;;;;;;;10.91;100.00;101749.75;5028501;28;20226;-74
2022/08/07 02:02:24;;;;;;;0.97;0.93;;;;;;;10.90;100.00;101751.47;5029391;28;20200;-74
2022/08/07 02:04:56;;;;;;;0.80;0.80;;;;;;;11.00;100.00;101752.28;5038388;28;20195;-74
2022/08/07 02:07:26;;;;;;;0.97;0.80;;;;;;;11.02;100.00;101753.13;5030359;28;20221;-74
2022/08/07 02:09:56;;;;;;;0.80;0.80;;;;;;;11.17;100.00;101752.09;5031223;28;20258;-74
2022/08/07 02:12:28;;;;;;;0.70;0.70;;;;;;;11.24;100.00;101752.88;5026821;28;20696;-74
2022/08/07 02:14:58;;;;;;;1.17;1.03;;;;;;;10.96;100.00;101755.81;5014017;28;20209;-74
2022/08/07 02:17:33;;;;;;;0.70;0.70;;;;;;;10.84;100.00;101759.38;5028726;28;20325;-74
2022/08/07 02:20:02;;;;;;;1.03;0.93;;;;;;;10.69;100.00;101757.75;5043687;28;20256;-74
2022/08/07 02:22:30;;;;;;;1.30;1.10;;;;;;;10.83;100.00;101759.41;5025480;28;20194;-74
2022/08/07 02:24:58;;;;;;;1.30;1.20;;;;;;;10.77;100.00;101760.31;5026016;28;20660;-74
2022/08/07 02:27:28;;;;;;;0.90;0.90;;;;;;;10.74;100.00;101757.72;5049176;28;20222;-74
2022/08/07 02:29:57;;;;;;;0.90;0.90;;;;;;;10.80;100.00;101752.47;5028878;28;20233;-74
2022/08/07 02:32:30;;;;;;;0.70;0.70;;;;;;;10.80;100.00;101755.94;5029472;28;20215;-74
2022/08/07 02:34:58;;;;;;;0.80;0.80;;;;;;;10.79;100.00;101758.56;5046916;28;20272;-74
2022/08/07 02:37:28;;;;;;;0.80;0.80;;;;;;;10.51;100.00;101757.91;5030970;28;20196;-74
2022/08/07 02:39:57;;;;;;;0.60;0.60;;;;;;;10.38;100.00;101758.00;5017200;28;20216;-74
2022/08/07 02:42:24;;;;;;;2.00;0.90;;;;;;;10.28;100.00;101756.31;5011456;28;20209;-74
2022/08/07 02:44:53;;;;;;;1.07;0.97;;;;;;;10.18;100.00;101754.63;5027570;28;20292;-74
2022/08/07 02:47:22;;;;;;;0.80;0.80;;;;;;;10.33;100.00;101751.13;5030964;28;20597;-74
2022/08/07 02:49:52;;;;;;;1.03;0.93;;;;;;;10.28;100.00;101755.47;5031257;28;20229;-74
2022/08/07 02:52:23;;;;;;;1.07;1.00;;;;;;;10.39;100.00;101756.25;5031142;28;20222;-74
2022/08/07 02:54:51;;;;;;;0.80;0.73;;;;;;;10.29;100.00;101758.06;5028164;28;20205;-74
2022/08/07 02:57:20;;;;;;;1.40;1.03;;;;;;;10.38;100.00;101759.78;5029562;28;20205;-74
2022/08/07 02:59:49;;;;;;;1.77;1.20;;;;;;;10.29;100.00;101762.38;5038473;28;20241;-74
2022/08/07 03:02:18;;;;;;;1.00;0.90;;;;;;;10.42;100.00;101766.69;5033090;28;20191;-74
2022/08/07 03:04:46;;;;;;;1.17;1.07;;;;;;;10.38;100.00;101768.44;5049099;28;20195;-75
2022/08/07 03:07:16;;;;;;;1.10;0.97;;;;;;;10.50;100.00;101770.09;5031239;28;20258;-74
2022/08/07 03:09:44;;;;;;;1.30;1.20;;;;;;;10.45;100.00;101769.28;5022259;28;20455;-74
2022/08/07 03:12:12;;;;;;;1.20;1.10;;;;;;;10.24;100.00;101770.25;5048675;28;20209;-74
2022/08/07 03:14:39;;;;;;;1.20;1.10;;;;;;;10.34;100.00;101771.97;5028181;28;20208;-74
2022/08/07 03:17:07;;;;;;;1.10;1.00;;;;;;;10.21;100.00;101770.25;5016689;28;20225;-74
2022/08/07 03:19:36;;;;;;;0.97;0.90;;;;;;;10.07;100.00;101772.09;5034987;28;20940;-74
2022/08/07 03:22:03;;;;;;;1.10;1.00;;;;;;;10.12;100.00;101767.72;5034484;28;20199;-74
2022/08/07 03:24:30;;;;;;;1.10;1.00;;;;;;;10.15;100.00;101765.97;5046880;28;20275;-74
2022/08/07 03:27:03;;;;;;;1.20;1.10;;;;;;;10.12;100.00;101765.97;5034417;28;20202;-74
2022/08/07 03:29:44;;;;;;;1.63;1.30;;;;;;;10.17;100.00;101763.34;5030898;28;20303;-74
2022/08/07 03:32:12;;;;;;;1.33;1.17;;;;;;;10.00;100.00;101771.25;5026369;28;20218;-74
2022/08/07 03:34:42;;;;;;;1.60;1.50;;;;;;;10.16;100.00;101765.06;5052529;28;20219;-74
2022/08/07 03:37:11;;;;;;;1.13;1.03;;;;;;;9.93;100.00;101769.56;5034650;28;20751;-74
2022/08/07 03:39:38;;;;;;;1.43;1.33;;;;;;;10.05;100.00;101772.97;5034290;28;20254;-74
2022/08/07 03:42:06;;;;;;;1.43;1.33;;;;;;;10.13;100.00;101767.72;5052242;28;20811;-74
2022/08/07 03:44:35;;;;;;;1.30;1.20;;;;;;;10.20;100.00;101765.91;5034376;28;20216;-74
2022/08/07 03:47:04;;;;;;;1.37;1.27;;;;;;;10.11;100.00;101758.16;5034168;28;20591;-74
2022/08/07 03:49:30;;;;;;;1.23;1.13;;;;;;;9.95;100.00;101762.59;5033807;28;20224;-74
2022/08/07 03:52:00;;;;;;;1.73;1.30;;;;;;;9.97;100.00;101763.44;5032570;28;20250;-74
2022/08/07 03:54:26;;;;;;;1.17;1.17;;;;;;;10.32;100.00;101763.25;5034208;28;20287;-74
2022/08/07 03:56:54;;;;;;;2.50;1.70;;;;;;;10.51;100.00;101769.22;5051882;28;20279;-74
2022/08/07 03:59:21;;;;;;;1.80;1.60;;;;;;;10.37;100.00;101758.03;5051092;28;20190;-74
2022/08/07 04:01:52;;;;;;;3.67;1.70;;;;;;;10.42;100.00;101757.09;5030710;28;20197;-74
2022/08/07 04:04:22;;;;;;;1.87;1.60;;;;;;;10.37;100.00;101764.09;5031940;28;20248;-74
2022/08/07 04:06:53;;;;;;;1.80;1.70;;;;;;;10.20;100.00;101771.13;5034128;28;20199;-73
2022/08/07 04:09:23;;;;;;;3.30;1.27;;;;;;;10.27;100.00;101769.34;5033531;28;20708;-73
2022/08/07 04:11:54;;;;;;;1.70;1.30;;;;;;;10.30;100.00;101766.72;5023056;28;20258;-73
2022/08/07 04:14:21;;;;;;;1.53;1.43;;;;;;;10.22;100.00;101772.00;5033901;28;20204;-73
2022/08/07 04:16:48;;;;;;;1.40;1.30;;;;;;;10.56;100.00;101771.78;5033910;28;20207;-74
2022/08/07 04:19:15;;;;;;;1.23;1.13;;;;;;;10.40;100.00;101774.50;5031398;28;20203;-74
2022/08/07 04:21:45;;;;;;;1.13;1.03;;;;;;;10.63;100.00;101772.63;5030530;28;20200;-74
2022/08/07 04:24:12;;;;;;;1.40;1.30;;;;;;;10.69;100.00;101776.00;5030744;28;20205;-74
2022/08/07 04:26:41;;;;;;;1.60;1.50;;;;;;;10.68;100.00;101769.09;5033394;28;20205;-74
2022/08/07 04:29:08;;;;;;;1.40;1.30;;;;;;;10.91;100.00;101776.72;5023692;28;20206;-74
2022/08/07 04:31:38;;;;;;;1.37;1.10;;;;;;;11.04;100.00;101779.19;5022679;28;20223;-74
2022/08/07 04:34:06;;;;;;;1.47;1.33;;;;;;;11.14;100.00;101783.47;5016146;28;20667;-74
2022/08/07 04:36:33;;;;;;;2.03;1.60;;;;;;;11.15;100.00;101777.34;5052279;28;20228;-74
2022/08/07 04:39:00;;;;;;;2.57;1.97;;;;;;;11.29;100.00;101785.03;5034374;28;20293;-74
2022/08/07 04:41:26;;;;;;;2.33;1.90;;;;;;;11.57;100.00;101780.34;5028753;28;20212;-74
2022/08/07 04:43:55;;;;;;;4.60;2.43;;;;;;;11.48;100.00;101780.47;5034621;28;20205;-74
2022/08/07 04:46:32;;;;;;;2.60;2.00;;;;;;;11.63;100.00;101777.69;5050999;28;20200;-74
2022/08/07 04:49:09;;;;;;;4.37;2.10;;;;;;;11.71;100.00;101775.84;5033007;28;20208;-74
2022/08/07 04:51:44;;;;;;;7.93;2.40;;;;;;;11.83;100.00;101785.25;5031620;28;20217;-74
2022/08/07 04:54:17;;;;;;;3.63;2.00;;;;;;;12.03;100.00;101789.38;5033349;28;20584;-74
2022/08/07 04:56:49;;;;;;;2.90;1.83;;;;;;;12.13;100.00;101794.47;5033185;28;20614;-74
2022/08/07 04:59:28;;;;;;;2.97;1.80;;;;;;;12.18;100.00;101797.03;5032577;28;20301;-74
2022/08/07 05:02:02;;;;;;;2.00;1.80;;;;;;;12.35;100.00;101795.91;5032475;28;20236;-74
2022/08/07 05:04:37;;;;;;;3.17;1.97;;;;;;;12.53;100.00;101800.03;5024305;28;20233;-74
2022/08/07 05:07:11;;;;;;;2.57;1.60;;;;;;;12.57;100.00;101799.06;5028267;28;20694;-73
2022/08/07 05:09:42;;;;;;;2.50;1.73;;;;;;;12.67;100.00;101792.81;5031958;28;20321;-73
2022/08/07 05:12:12;;;;;;;1.90;1.50;;;;;;;12.76;100.00;101797.88;5049702;28;20211;-73
2022/08/07 05:14:43;;;;;;;2.40;1.60;;;;;;;12.92;100.00;101797.63;5035811;28;20657;-73
2022/08/07 05:17:14;;;;;;;1.80;1.37;;;;;;;13.11;100.00;101798.19;5032397;28;20195;-73
2022/08/07 05:19:46;;;;;;;11.87;2.83;;;;;;;13.20;100.00;101805.88;5042181;28;20695;-74
2022/08/07 05:22:17;;;;;;;2.07;1.63;;;;;;;13.21;100.00;101805.84;5032413;28;20199;-74
2022/08/07 05:24:45;;;;;;;2.70;1.97;;;;;;;13.13;96.43;101812.09;5026448;28;20774;-73
2022/08/07 05:27:14;;;;;;;2.17;1.97;;;;;;;13.26;99.22;101814.47;5028382;28;20273;-74
2022/08/07 05:29:45;;;;;;;2.10;1.90;;;;;;;13.03;91.58;101808.78;5048855;28;20223;-74
2022/08/07 05:32:15;;;;;;;1.67;1.43;;;;;;;13.32;98.08;101803.06;5021457;28;20290;-74
2022/08/07 05:34:42;;;;;;;1.33;1.23;;;;;;;13.18;89.85;101815.50;5028647;28;20268;-74
2022/08/07 05:37:10;;;;;;;4.63;1.47;;;;;;;13.21;92.16;101811.06;5028650;28;20219;-74
2022/08/07 05:39:45;;;;;;;2.53;1.30;;;;;;;13.33;90.71;101812.66;5025374;28;20235;-74
2022/08/07 05:42:14;;;;;;;3.40;1.73;;;;;;;13.60;93.46;101816.47;5022595;28;20724;-74
2022/08/07 05:44:44;;;;;;;2.83;1.70;;;;;;;13.83;94.20;101818.63;5028337;28;20725;-74
2022/08/07 05:47:11;;;;;;;1.60;1.43;;;;;;;14.05;93.75;101814.69;5031520;28;20269;-74
2022/08/07 05:49:40;;;;;;;1.93;1.53;;;;;;;14.33;93.02;101810.53;5031119;28;20951;-73
2022/08/07 05:52:07;;;;;;;1.33;1.23;;;;;;;14.52;93.20;101808.34;5031235;28;20263;-73
2022/08/07 05:54:33;;;;;;;1.30;1.10;;;;;;;14.67;93.57;101816.78;5021046;28;20207;-74
2022/08/07 05:57:03;;;;;;;1.40;1.00;;;;;;;14.74;88.59;101827.13;5031113;28;20224;-73
2022/08/07 05:59:32;;;;;;;1.97;1.53;;;;;;;14.69;84.77;101822.88;5014933;28;20710;-74
2022/08/07 06:02:05;;;;;;;1.60;1.30;;;;;;;15.01;91.64;101816.81;5031302;28;20198;-74
2022/08/07 06:04:33;;;;;;;1.60;1.30;;;;;;;15.25;90.93;101819.69;5044665;28;20200;-74
2022/08/07 06:07:04;;;;;;;2.07;1.10;;;;;;;15.34;87.92;101825.56;5030674;28;20468;-74
2022/08/07 06:09:32;;;;;;;1.73;1.40;;;;;;;15.52;87.38;101828.59;5026926;28;20222;-74
2022/08/07 06:11:59;;;;;;;1.60;1.43;;;;;;;15.54;83.24;101829.41;5031101;28;20685;-74
2022/08/07 06:14:26;;;;;;;2.20;1.40;;;;;;;15.60;78.23;101837.16;5019837;28;20211;-74
2022/08/07 06:16:57;;;;;;;1.50;1.40;;;;;;;15.63;74.54;101839.66;5018202;28;20203;-74
2022/08/07 06:19:33;;;;;;;3.17;1.20;;;;;;;15.68;77.10;101831.66;5018001;28;20231;-73
2022/08/07 06:22:00;;;;;;;1.33;1.23;;;;;;;15.71;72.08;101840.31;5023638;28;20345;-73
2022/08/07 06:24:26;;;;;;;2.97;1.10;;;;;;;15.78;69.94;101850.72;5027810;28;20202;-74
2022/08/07 06:26:53;;;;;;;3.10;1.07;;;;;;;15.79;68.38;101850.66;5022056;28;20293;-74
2022/08/07 06:29:26;;;;;;;1.67;1.00;;;;;;;15.86;67.76;101843.44;5027089;28;20201;-73
2022/08/07 06:31:53;;;;;;;1.17;0.90;;;;;;;15.92;68.07;101848.56;5021710;28;20212;-73
2022/08/07 06:34:23;;;;;;;1.53;1.10;;;;;;;16.02;71.89;101847.38;5039552;28;20626;-72
2022/08/07 06:36:51;;;;;;;1.63;1.10;;;;;;;16.11;70.31;101846.22;5011538;28;20196;-73
2022/08/07 06:39:18;;;;;;;1.33;0.97;;;;;;;16.27;72.70;101849.28;5022656;28;20196;-74
2022/08/07 06:41:49;;;;;;;2.33;1.20;;;;;;;16.31;64.77;101853.53;5017078;28;20230;-74
2022/08/07 06:44:17;;;;;;;2.93;1.37;;;;;;;16.42;68.30;101854.03;5029855;28;20288;-73
2022/08/07 06:46:46;;;;;;;2.67;1.40;;;;;;;16.40;64.24;101858.50;5022590;28;20200;-74
2022/08/07 06:49:13;;;;;;;2.97;1.30;;;;;;;16.57;71.53;101847.44;5030942;28;20207;-74
2022/08/07 06:51:40;;;;;;;1.53;1.30;;;;;;;16.68;68.14;101846.25;5029920;28;20204;-74
2022/08/07 06:54:13;;;;;;;1.97;1.40;;;;;;;16.71;62.59;101856.66;5026433;28;20317;-74
2022/08/07 06:56:45;;;;;;;2.47;1.30;;;;;;;16.84;65.93;101850.13;5029739;28;20678;-73
2022/08/07 06:59:20;;;;;;;1.90;1.50;;;;;;;16.98;62.08;101857.56;5025420;28;20230;-74
2022/08/07 07:01:55;;;;;;;1.43;1.10;;;;;;;17.09;61.94;101855.41;5018079;28;20210;-74
2022/08/07 07:04:22;;;;;;;2.37;1.20;;;;;;;17.26;63.46;101851.38;5031912;28;20202;-73
2022/08/07 07:06:49;;;;;;;1.33;1.20;;;;;;;17.36;58.92;101853.63;5026683;28;20754;-73
2022/08/07 07:09:23;;;;;;;1.47;1.20;;;;;;;17.46;61.18;101845.38;5047104;28;20199;-74
2022/08/07 07:12:01;;;;;;;1.17;1.07;;;;;;;17.54;58.66;101848.63;5040934;28;20205;-73
2022/08/07 07:14:31;;;;;;;2.33;1.30;;;;;;;17.66;62.90;101847.28;5046431;28;20226;-73
2022/08/07 07:17:02;;;;;;;2.27;1.20;;;;;;;17.73;60.43;101841.75;5044030;28;20246;-73
2022/08/07 07:19:33;;;;;;;0.90;0.87;;;;;;;17.90;58.15;101849.06;5027721;28;20211;-73
2022/08/07 07:22:01;;;;;;;1.70;1.20;;;;;;;18.05;61.92;101833.59;5023573;28;20211;-74
2022/08/07 07:24:30;;;;;;;1.10;1.00;;;;;;;18.16;58.20;101847.22;5046667;28;20195;-73
2022/08/07 07:27:00;;;;;;;1.80;1.10;;;;;;;18.33;56.56;101844.78;5047100;28;20550;-74
2022/08/07 07:29:32;;;;;;;1.13;0.87;;;;;;;18.48;54.37;101847.72;5025795;28;20725;-73
2022/08/07 07:32:02;;;;;;;1.53;1.10;;;;;;;18.57;55.67;101836.78;5023294;28;20207;-73
2022/08/07 07:34:31;;;;;;;1.20;1.10;;;;;;;18.62;54.48;101842.75;5039642;28;20195;-74
2022/08/07 07:37:00;;;;;;;2.03;1.07;;;;;;;18.74;54.83;101844.03;5043634;28;20278;-73
2022/08/07 07:39:29;;;;;;;1.17;0.90;;;;;;;18.80;56.39;101838.47;5045769;28;20566;-73
2022/08/07 07:41:57;;;;;;;1.23;0.90;;;;;;;18.89;51.82;101854.00;5037032;28;20196;-73
2022/08/07 07:44:26;;;;;;;1.17;0.90;;;;;;;19.00;55.47;101832.41;5047791;28;20206;-73
2022/08/07 07:46:55;;;;;;;1.47;0.90;;;;;;;19.13;49.54;101838.03;5043746;28;20227;-74
2022/08/07 07:49:24;;;;;;;0.80;0.80;;;;;;;19.34;49.64;101840.69;5041234;28;20195;-74
2022/08/07 07:51:53;;;;;;;1.40;0.87;;;;;;;19.44;51.64;101834.91;5027373;28;20680;-74
2022/08/07 07:54:19;;;;;;;1.70;0.80;;;;;;;19.54;50.05;101831.84;5043904;28;20203;-74
2022/08/07 07:56:49;;;;;;;1.80;0.80;;;;;;;19.64;48.43;101831.34;5039989;28;20565;-73
2022/08/07 07:59:16;;;;;;;1.47;0.60;;;;;;;19.79;48.27;101829.84;5035559;28;20216;-74
2022/08/07 08:01:46;;;;;;;1.00;0.87;;;;;;;19.81;49.37;101825.34;5047244;28;20203;-73
2022/08/07 08:04:15;;;;;;;0.77;0.77;;;;;;;19.93;48.89;101825.69;5042198;28;20925;-72
2022/08/07 08:06:44;;;;;;;0.63;0.63;;;;;;;20.08;48.87;101822.34;5044715;28;20656;-73
2022/08/07 08:09:12;;;;;;;4.73;0.80;;;;;;;20.22;47.84;101827.81;5044991;28;20206;-73
2022/08/07 08:11:39;;;;;;;0.70;0.70;;;;;;;20.26;48.62;101822.41;5047005;28;20830;-73
2022/08/07 08:14:06;;;;;;;1.20;0.80;;;;;;;20.33;46.84;101822.00;5048325;28;20233;-73
2022/08/07 08:16:36;;;;;;;1.13;0.80;;;;;;;20.44;44.78;101824.16;5045031;28;20196;-74
2022/08/07 08:19:07;;;;;;;0.70;0.70;;;;;;;20.49;45.25;101822.16;5047248;28;20231;-74
2022/08/07 08:27:08;;;;;;;0.63;0.60;;;;;;;20.77;44.62;101816.38;5039662;28;20699;-73
2022/08/07 08:29:40;;;;;;;0.97;0.50;;;;;;;20.89;42.73;101820.19;5040951;28;20227;-73
2022/08/07 08:32:10;;;;;;;0.67;0.67;;;;;;;20.90;44.24;101821.06;5037531;28;20196;-73
2022/08/07 08:34:39;;;;;;;0.70;0.70;;;;;;;20.86;44.94;101814.19;5042486;28;20207;-73
2022/08/07 08:37:09;;;;;;;0.63;0.60;;;;;;;20.88;44.28;101817.59;5043233;28;20235;-73
2022/08/07 08:39:37;;;;;;;0.60;0.60;;;;;;;20.86;44.21;101814.19;5043791;28;20558;-73
2022/08/07 08:42:07;;;;;;;0.50;0.50;;;;;;;21.02;44.51;101812.47;5049326;28;20561;-73
2022/08/07 08:44:39;;;;;;;1.43;0.83;;;;;;;21.14;44.61;101810.97;5044598;28;20206;-73
2022/08/07 08:47:08;;;;;;;0.80;0.80;;;;;;;20.99;45.01;101802.88;5044315;28;20219;-73
2022/08/07 08:49:41;;;;;;;0.63;0.50;;;;;;;20.95;44.49;101809.28;5046230;28;20227;-74
2022/08/07 08:52:15;;;;;;;1.67;0.60;;;;;;;21.03;44.99;101808.03;5047650;28;20204;-73
2022/08/07 08:54:47;;;;;;;2.60;0.87;;;;;;;21.10;44.28;101804.13;5045642;28;20203;-72
2022/08/07 08:57:25;;;;;;;0.50;0.50;;;;;;;21.20;40.95;101807.16;5046951;28;20191;-73
2022/08/07 08:59:59;;;;;;;1.07;0.70;;;;;;;21.37;40.38;101801.78;5038244;28;20219;-73
2022/08/07 09:02:34;;;;;;;0.70;0.60;;;;;;;21.60;40.99;101805.06;5036907;28;20227;-73
2022/08/07 09:05:13;;;;;;;0.50;0.50;;;;;;;21.54;40.29;101798.28;5041419;28;20195;-73
2022/08/07 09:07:46;;;;;;;1.77;0.67;;;;;;;21.34;40.50;101800.19;5043114;28;20206;-73
2022/08/07 09:10:19;;;;;;;0.70;0.53;;;;;;;21.37;39.93;101802.69;5041043;28;20226;-74
2022/08/07 09:12:56;;;;;;;0.60;0.60;;;;;;;21.73;40.60;101798.16;5039971;28;20218;-73
2022/08/07 09:15:37;;;;;;;1.67;0.63;;;;;;;21.78;39.75;101793.44;5043907;28;20195;-73
2022/08/07 09:18:18;;;;;;;0.43;0.40;;;;;;;22.07;38.96;101797.13;5042399;28;20745;-74
2022/08/07 09:20:50;;;;;;;0.63;0.50;;;;;;;22.25;37.26;101797.03;5038809;28;20416;-74
2022/08/07 09:23:28;;;;;;;3.13;0.70;;;;;;;22.00;37.27;101793.09;5043165;28;20210;-74
2022/08/07 09:26:08;;;;;;;0.40;0.40;;;;;;;22.04;36.65;101801.75;5044183;28;20202;-73
2022/08/07 09:28:39;;;;;;;1.77;0.50;;;;;;;22.18;37.85;101795.66;5043194;28;20730;-73
2022/08/07 09:31:13;;;;;;;0.50;0.50;;;;;;;22.15;37.38;101788.75;5026246;28;20618;-72
2022/08/07 09:33:52;;;;;;;0.67;0.67;;;;;;;22.43;36.71;101793.38;5046685;28;20221;-73
2022/08/07 09:36:27;;;;;;;1.07;0.50;;;;;;;22.30;37.64;101781.72;5042728;28;20223;-73
2022/08/07 09:39:02;;;;;;;0.67;0.60;;;;;;;22.54;38.18;101781.25;5027984;28;20294;-72
2022/08/07 09:41:35;;;;;;;0.83;0.77;;;;;;;22.58;36.18;101788.09;5045453;28;20586;-73
2022/08/07 09:44:08;;;;;;;0.30;0.30;;;;;;;22.51;35.70;101784.94;5043213;28;20206;-73
2022/08/07 09:47:02;;;;;;;0.83;0.53;;;;;;;22.42;34.98;101790.78;5025379;28;20221;-74
2022/08/07 09:49:48;;;;;;;0.70;0.50;;;;;;;22.36;36.59;101769.91;5024781;28;20218;-74
2022/08/07 09:52:23;;;;;;;0.60;0.60;;;;;;;22.71;38.34;101766.97;5038885;28;20661;-73
2022/08/07 09:54:55;;;;;;;0.60;0.60;;;;;;;22.92;37.46;101765.69;5045662;28;20225;-73
2022/08/07 09:57:44;;;;;;;1.10;0.80;;;;;;;23.14;38.51;101762.59;5041326;28;20222;-73
2022/08/07 10:00:12;;;;;;;0.60;0.60;;;;;;;22.99;35.78;101761.72;5045689;28;20211;-73
2022/08/07 10:03:07;;;;;;;1.07;0.60;;;;;;;23.05;36.49;101766.69;5039937;28;20660;-73
2022/08/07 10:06:09;;;;;;;0.97;0.67;;;;;;;23.32;36.28;101759.75;5021510;28;20200;-74
2022/08/07 10:09:03;;;;;;;2.17;0.77;;;;;;;23.09;35.12;101763.84;5030474;28;20216;-73
2022/08/07 10:11:44;;;;;;;0.90;0.80;;;;;;;22.93;35.13;101762.06;5043159;28;20188;-72
2022/08/07 10:14:26;;;;;;;1.73;0.80;;;;;;;22.82;35.73;101760.06;5030658;28;20273;-73
2022/08/07 10:17:12;;;;;;;1.77;0.80;;;;;;;22.83;35.48;101753.81;5040172;28;20210;-74
2022/08/07 10:19:48;;;;;;;1.05;0.55;;;;;;;22.83;36.43;101751.16;5039777;28;20227;-74
2022/08/07 10:22:35;;;;;;;0.82;0.70;;;;;;;22.67;38.32;101745.03;5042383;28;20274;-73
2022/08/07 10:25:20;;;;;;;0.80;0.77;;;;;;;22.61;36.53;101740.09;5038860;28;20217;-73
2022/08/07 10:28:11;;;;;;;1.30;0.80;;;;;;;22.97;34.65;101741.47;5022199;28;20203;-73
2022/08/07 10:30:57;;;;;;;1.35;0.85;;;;;;;23.26;35.13;101742.38;5045189;28;20228;-73
2022/08/07 10:33:38;;;;;;;1.02;0.90;;;;;;;23.14;33.94;101743.97;5037855;28;20211;-73
2022/08/07 10:36:23;;;;;;;1.00;0.60;;;;;;;23.07;34.37;101729.34;5034780;28;20200;-74
2022/08/07 10:38:57;;;;;;;0.70;0.67;;;;;;;23.17;34.19;101724.34;5045251;28;20214;-73
2022/08/07 10:41:32;;;;;;;1.27;0.70;;;;;;;23.24;33.47;101734.50;5021026;28;20277;-74
2022/08/07 10:44:06;;;;;;;0.82;0.80;;;;;;;23.35;35.73;101712.53;5040770;28;20191;-74
2022/08/07 10:46:41;;;;;;;0.77;0.63;;;;;;;23.39;33.41;101713.19;5037503;28;20195;-73
2022/08/07 10:49:14;;;;;;;1.00;0.75;;;;;;;23.27;33.21;101711.28;5040084;28;20198;-73
2022/08/07 10:51:54;;;;;;;1.63;0.57;;;;;;;23.01;33.77;101706.63;5038022;28;20206;-73
2022/08/07 10:54:32;;;;;;;0.93;0.68;;;;;;;22.79;33.91;101704.41;5037927;28;20203;-73
2022/08/07 10:57:10;;;;;;;0.60;0.55;;;;;;;22.63;34.73;101704.47;5039873;28;20253;-74
2022/08/07 11:00:02;;;;;;;0.80;0.80;;;;;;;22.69;35.02;101695.31;5041481;28;20280;-73
2022/08/07 11:02:35;;;;;;;1.83;0.70;;;;;;;22.64;34.88;101700.03;5036476;28;20207;-74
2022/08/07 11:05:18;;;;;;;0.95;0.75;;;;;;;22.53;34.92;101691.84;5020918;28;20725;-73
2022/08/07 11:07:59;;;;;;;0.68;0.68;;;;;;;22.68;34.11;101686.47;5036640;28;20192;-73
2022/08/07 11:10:31;;;;;;;0.68;0.63;;;;;;;23.01;34.93;101690.66;5035108;28;20227;-73
2022/08/07 11:13:06;;;;;;;0.68;0.63;;;;;;;23.03;33.71;101693.25;5039575;28;20196;-73
2022/08/07 11:15:38;;;;;;;1.13;0.70;;;;;;;23.21;35.75;101683.28;5024078;28;20198;-73
2022/08/07 11:18:14;;;;;;;0.67;0.60;;;;;;;23.36;35.84;101682.31;5038992;28;20689;-73
2022/08/07 11:20:46;;;;;;;0.70;0.70;;;;;;;23.54;33.98;101679.44;5037740;28;20298;-73
2022/08/07 11:23:22;;;;;;;0.60;0.60;;;;;;;23.79;33.76;101679.53;5044274;28;20199;-73
2022/08/07 11:25:54;;;;;;;0.60;0.60;;;;;;;24.10;33.59;101674.91;5042942;28;20199;-72
2022/08/07 11:28:24;;;;;;;0.63;0.40;;;;;;;24.16;32.34;101666.47;5043493;28;20203;-73
2022/08/07 11:30:57;;;;;;;0.52;0.52;;;;;;;24.11;32.26;101663.25;5045539;28;20211;-73
2022/08/07 11:33:28;;;;;;;0.60;0.60;;;;;;;24.15;34.90;101645.25;5044182;28;20219;-73
2022/08/07 11:36:06;;;;;;;0.40;0.40;;;;;;;24.15;35.11;101648.81;5039554;28;21075;-74
2022/08/07 11:38:43;;;;;;;1.00;0.43;;;;;;;24.16;32.30;101646.97;5039175;28;20195;-74
2022/08/07 11:41:14;;;;;;;1.27;0.65;;;;;;;24.10;32.25;101648.25;5024898;28;20218;-73
2022/08/07 11:43:48;;;;;;;0.73;0.50;;;;;;;24.33;32.15;101649.34;5048529;28;20262;-74
2022/08/07 11:46:30;;;;;;;0.95;0.60;;;;;;;24.22;31.86;101653.69;5047980;28;20210;-74